Terminal Aerodrome Forecast
Issued by NWS Green Bay, WI

Home | Current Version | Previous Version | Text Only | Print | Product List | Glossary Off
Versions: 1 2 3 4 5 6 7 8 9 10 11 12 13 14 15 16 17 18 19 20

000
FTUS43 KGRB 252325
TAFGRB
TAF
KGRB 252325Z 2600/2624 03016G24KT P6SM SCT012 BKN070
      TEMPO 2600/2601 3SM SHRA BKN012 BKN035
     FM260100 03016G24KT P6SM SCT009 BKN050
      TEMPO 2601/2603 BKN009
     FM260300 04013G20KT 6SM BR BKN009 OVC040
     FM260600 02018G24KT P6SM SCT005 OVC008
     FM261500 04014G23KT P6SM BKN015 OVC035
     FM262200 04013G22KT P6SM BKN035 OVC050=

USA.gov is the U.S. government's official web portal to all federal, state and local government web resources and services.